createdAt,value
2018-04-29T00:01:01.047Z,62.70
2018-04-29T00:03:27.922Z,63.10
2018-04-29T00:05:54.719Z,62.40
2018-04-29T00:08:20.809Z,62.40
2018-04-29T00:10:46.852Z,63.20
2018-04-29T00:13:12.909Z,63.40
2018-04-29T00:15:39.209Z,62.60
2018-04-29T00:18:05.899Z,62.60
2018-04-29T00:20:32.713Z,63.90
2018-04-29T00:22:58.769Z,63.90
2018-04-29T00:25:26.573Z,63.10
2018-04-29T00:27:53.943Z,63.10
2018-04-29T00:30:20.802Z,64.30
2018-04-29T00:32:46.886Z,64.30
2018-04-29T00:35:13.373Z,64.80
2018-04-29T00:37:39.439Z,64.60
2018-04-29T00:40:05.501Z,64.30
2018-04-29T00:42:31.586Z,64.40
2018-04-29T00:44:57.740Z,65.10
2018-04-29T00:47:24.460Z,64.00
2018-04-29T00:49:51.499Z,65.50
2018-04-29T00:52:17.767Z,65.50
2018-04-29T00:54:44.501Z,65.50
2018-04-29T00:57:11.885Z,64.50
2018-04-29T00:59:37.950Z,64.40
2018-04-29T01:02:04.411Z,64.90
2018-04-29T01:04:30.831Z,66.30
2018-04-29T01:06:57.748Z,65.40
2018-04-29T01:09:25.648Z,65.90
2018-04-29T01:11:51.796Z,65.90
2018-04-29T01:14:17.829Z,66.00
2018-04-29T01:16:43.897Z,66.20
2018-04-29T01:19:10.292Z,66.30
2018-04-29T01:21:37.093Z,66.70
2018-04-29T01:24:03.576Z,66.70
2018-04-29T01:26:30.366Z,65.60
2018-04-29T01:28:56.935Z,65.60
2018-04-29T01:31:23.760Z,66.40
2018-04-29T01:33:49.912Z,66.20
2018-04-29T01:36:16.747Z,66.30
2018-04-29T01:38:43.137Z,67.30
2018-04-29T01:41:09.984Z,68.20
2018-04-29T01:43:36.041Z,68.30
2018-04-29T01:46:02.751Z,66.60
2018-04-29T01:48:35.755Z,68.50
2018-04-29T01:51:02.434Z,68.30
2018-04-29T01:53:29.919Z,67.30
2018-04-29T01:55:55.968Z,67.20
2018-04-29T01:58:22.021Z,68.60
2018-04-29T02:00:48.099Z,68.30
2018-04-29T02:03:14.827Z,68.10
2018-04-29T02:05:41.424Z,68.30
2018-04-29T02:08:08.872Z,69.00
2018-04-29T02:10:35.528Z,68.90
2018-04-29T02:13:02.865Z,69.50
2018-04-29T02:15:30.552Z,69.40
2018-04-29T02:17:56.884Z,69.00
2018-04-29T02:20:23.724Z,69.00
2018-04-29T02:22:50.536Z,70.60
2018-04-29T02:25:16.589Z,70.60
2018-04-29T02:27:43.867Z,70.40
2018-04-29T02:30:10.740Z,71.20
2018-04-29T02:32:36.827Z,71.20
2018-04-29T02:35:02.875Z,69.50
2018-04-29T02:37:28.921Z,70.80
2018-04-29T02:39:54.993Z,70.90
2018-04-29T02:42:21.075Z,70.50
2018-04-29T02:44:47.111Z,70.10
2018-04-29T02:47:13.185Z,69.50
2018-04-29T02:49:39.228Z,71.20
2018-04-29T02:52:05.277Z,69.90
2018-04-29T02:54:31.338Z,70.20
2018-04-29T02:56:57.394Z,70.20
2018-04-29T02:59:23.440Z,70.80
2018-04-29T03:01:49.515Z,71.10
2018-04-29T03:04:15.575Z,71.20
2018-04-29T03:06:41.634Z,70.80
2018-04-29T03:09:09.192Z,70.80
2018-04-29T03:11:36.659Z,70.90
2018-04-29T03:14:04.130Z,71.40
2018-04-29T03:16:30.889Z,71.40
2018-04-29T03:18:57.535Z,71.00
2018-04-29T03:21:24.104Z,71.70
2018-04-29T03:23:50.168Z,72.00
2018-04-29T03:26:16.753Z,71.50
2018-04-29T03:28:42.819Z,70.40
2018-04-29T03:31:09.627Z,71.10
2018-04-29T03:33:35.675Z,71.80
2018-04-29T03:36:02.503Z,72.70
2018-04-29T03:38:28.537Z,72.60
2018-04-29T03:40:55.337Z,73.00
2018-04-29T03:43:22.404Z,72.90
2018-04-29T03:45:48.791Z,71.20
2018-04-29T03:48:14.872Z,71.70
2018-04-29T03:50:40.927Z,72.20
2018-04-29T03:53:06.996Z,72.80
2018-04-29T03:55:33.661Z,72.00
2018-04-29T03:58:06.686Z,74.40
2018-04-29T04:00:48.981Z,73.60
2018-04-29T04:03:21.173Z,72.50
2018-04-29T04:05:47.218Z,73.60
2018-04-29T04:08:13.417Z,73.60
2018-04-29T04:10:39.493Z,73.40
2018-04-29T04:13:06.283Z,74.00
2018-04-29T04:15:32.474Z,74.00
2018-04-29T04:17:59.284Z,73.10
2018-04-29T04:20:25.344Z,73.10
2018-04-29T04:22:52.168Z,73.80
2018-04-29T04:25:19.096Z,73.80
2018-04-29T04:27:45.157Z,73.70
2018-04-29T04:30:11.949Z,75.60
2018-04-29T04:32:38.012Z,75.50
2018-04-29T04:35:04.818Z,76.70
2018-04-29T04:37:31.111Z,76.70
2018-04-29T04:39:57.164Z,76.50
2018-04-29T04:42:24.012Z,76.60
2018-04-29T04:44:50.834Z,77.30
2018-04-29T04:47:16.977Z,77.30
2018-04-29T04:49:43.060Z,76.90
2018-04-29T04:52:09.114Z,76.60
2018-04-29T04:54:35.528Z,75.80
2018-04-29T04:57:02.503Z,74.40
2018-04-29T05:02:01.470Z,73.90
2018-04-29T05:04:27.516Z,72.80
2018-04-29T05:06:53.725Z,71.90
2018-04-29T05:09:19.761Z,71.20
2018-04-29T05:11:45.803Z,69.50
2018-04-29T05:14:12.521Z,67.80
2018-04-29T05:16:39.293Z,67.40
2018-04-29T05:19:05.423Z,67.50
2018-04-29T05:21:31.511Z,66.80
2018-04-29T05:23:57.561Z,66.20
2018-04-29T05:26:24.545Z,65.30
2018-04-29T05:28:51.437Z,62.40
2018-04-29T05:31:19.427Z,62.30
2018-04-29T05:33:45.487Z,61.60
2018-04-29T05:36:12.961Z,60.90
2018-04-29T05:38:38.996Z,60.90
2018-04-29T05:41:05.058Z,59.50
2018-04-29T05:43:31.145Z,58.00
2018-04-29T05:45:57.195Z,57.70
2018-04-29T05:48:23.672Z,57.10
2018-04-29T05:50:51.814Z,57.20
2018-04-29T05:53:18.624Z,56.40
2018-04-29T05:55:45.455Z,56.30
2018-04-29T05:58:11.733Z,56.50
2018-04-29T06:00:37.936Z,54.90
2018-04-29T06:03:03.980Z,53.80
2018-04-29T06:05:30.071Z,53.30
2018-04-29T06:07:56.112Z,53.50
2018-04-29T06:10:22.263Z,53.20
2018-04-29T06:12:48.351Z,52.90
2018-04-29T06:15:15.070Z,51.60
2018-04-29T06:17:41.832Z,50.80
2018-04-29T06:20:07.884Z,50.80
2018-04-29T06:22:33.965Z,49.40
2018-04-29T06:25:00.022Z,49.30
2018-04-29T06:27:26.744Z,49.50
2018-04-29T06:29:52.800Z,49.70
2018-04-29T06:32:18.867Z,50.50
2018-04-29T06:34:44.916Z,51.60
2018-04-29T06:37:11.531Z,52.40
2018-04-29T06:39:37.581Z,52.90
2018-04-29T06:42:03.631Z,54.50
2018-04-29T06:44:29.718Z,53.70
2018-04-29T06:46:55.852Z,52.20
2018-04-29T06:49:21.886Z,53.80
2018-04-29T06:51:47.952Z,53.70
2018-04-29T06:54:14.738Z,53.90
2018-04-29T06:56:40.801Z,53.90
2018-04-29T06:59:09.782Z,53.90
2018-04-29T07:01:36.162Z,53.80
2018-04-29T07:04:03.036Z,53.10
2018-04-29T07:06:29.654Z,53.00
2018-04-29T07:08:55.728Z,51.80
2018-04-29T07:11:22.446Z,50.90
2018-04-29T07:13:48.551Z,51.70
2018-04-29T07:16:14.636Z,51.60
2018-04-29T07:18:40.732Z,50.70
2018-04-29T07:21:06.829Z,50.30
2018-04-29T07:23:33.188Z,50.40
2018-04-29T07:25:59.810Z,51.10
2018-04-29T07:28:26.558Z,49.10
2018-04-29T07:30:52.843Z,49.10
2018-04-29T07:33:21.386Z,48.00
2018-04-29T07:35:48.209Z,48.10
2018-04-29T07:38:14.268Z,48.00
2018-04-29T07:40:41.086Z,48.10
2018-04-29T07:43:07.489Z,48.10
2018-04-29T07:45:34.198Z,47.90
2018-04-29T07:48:00.289Z,48.20
2018-04-29T07:50:27.152Z,48.30
2018-04-29T07:52:53.985Z,49.40
2018-04-29T07:55:20.878Z,48.40
2018-04-29T07:57:47.678Z,48.70
2018-04-29T08:00:13.881Z,48.60
2018-04-29T08:02:40.713Z,46.80
2018-04-29T08:05:06.767Z,46.70
2018-04-29T08:07:33.564Z,47.00
2018-04-29T08:09:59.647Z,46.90
2018-04-29T08:12:25.716Z,46.70
2018-04-29T08:14:51.778Z,46.40
2018-04-29T08:17:18.661Z,47.50
2018-04-29T08:19:44.766Z,47.50
2018-04-29T08:22:10.853Z,48.30
2018-04-29T08:24:37.025Z,47.70
2018-04-29T08:27:03.391Z,47.60
2018-04-29T08:29:29.449Z,47.20
2018-04-29T08:31:56.691Z,48.10
2018-04-29T08:34:22.945Z,48.10
2018-04-29T08:36:49.424Z,47.80
2018-04-29T08:39:16.311Z,48.80
2018-04-29T08:41:43.387Z,47.80
2018-04-29T08:44:09.908Z,47.80
2018-04-29T08:46:36.004Z,47.20
2018-04-29T08:49:04.063Z,46.50
2018-04-29T08:51:30.350Z,46.40
2018-04-29T08:53:56.401Z,46.30
2018-04-29T08:56:22.689Z,45.70
2018-04-29T08:58:49.889Z,45.30
2018-04-29T09:01:15.941Z,45.30
2018-04-29T09:03:42.792Z,43.90
2018-04-29T09:06:08.824Z,43.90
2018-04-29T09:08:35.042Z,45.20
2018-04-29T09:11:01.877Z,44.80
2018-04-29T09:13:28.760Z,44.80
2018-04-29T09:15:55.033Z,44.80
2018-04-29T09:18:21.859Z,45.10
2018-04-29T09:20:48.331Z,45.10
2018-04-29T09:23:15.185Z,44.70
2018-04-29T09:25:41.256Z,44.80
2018-04-29T09:28:07.323Z,43.80
2018-04-29T09:30:34.149Z,42.60
2018-04-29T09:33:01.413Z,43.40
2018-04-29T09:35:28.205Z,43.20
2018-04-29T09:37:54.599Z,43.10
2018-04-29T09:40:20.687Z,42.50
2018-04-29T09:42:46.850Z,43.40
2018-04-29T09:45:13.006Z,41.60
2018-04-29T09:47:39.711Z,42.00
2018-04-29T09:50:06.532Z,40.50
2018-04-29T09:52:33.492Z,41.40
2018-04-29T09:55:00.290Z,41.50
2018-04-29T09:57:27.333Z,41.50
2018-04-29T09:59:53.418Z,41.10
2018-04-29T10:02:23.761Z,39.30
2018-04-29T10:04:50.820Z,39.70
2018-04-29T10:07:17.653Z,39.90
2018-04-29T10:09:43.725Z,39.80
2018-04-29T10:12:10.892Z,38.30
2018-04-29T10:14:37.765Z,39.50
2018-04-29T10:17:04.487Z,38.90
2018-04-29T10:19:30.545Z,39.30
2018-04-29T10:21:56.623Z,39.20
2018-04-29T10:24:24.027Z,39.40
2018-04-29T10:26:50.099Z,39.30
2018-04-29T10:29:16.980Z,39.20
2018-04-29T10:31:43.112Z,39.20
2018-04-29T10:34:09.500Z,38.30
2018-04-29T10:36:36.304Z,37.30
2018-04-29T10:39:02.421Z,37.30
2018-04-29T10:41:29.049Z,37.10
2018-04-29T10:43:55.422Z,36.50
2018-04-29T10:46:22.442Z,31.80
2018-04-29T10:48:48.991Z,31.80
2018-04-29T10:51:16.676Z,30.70
2018-04-29T10:53:42.776Z,31.10
2018-04-29T10:56:08.893Z,32.70
2018-04-29T10:58:34.973Z,32.30
2018-04-29T11:01:01.057Z,32.30
2018-04-29T11:03:27.128Z,30.90
2018-04-29T11:05:53.435Z,31.80
2018-04-29T11:08:19.998Z,31.00
2018-04-29T11:10:46.076Z,31.60
2018-04-29T11:13:12.949Z,31.80
2018-04-29T11:15:39.472Z,31.80
2018-04-29T11:18:06.349Z,31.50
2018-04-29T11:20:32.421Z,31.50
2018-04-29T11:22:59.233Z,32.10
2018-04-29T11:25:25.281Z,32.10
2018-04-29T11:27:52.752Z,31.60
2018-04-29T11:30:19.989Z,31.60
2018-04-29T11:32:46.099Z,31.60
2018-04-29T11:35:12.159Z,32.30
2018-04-29T11:37:39.539Z,31.90
2018-04-29T11:40:05.647Z,31.90
2018-04-29T11:42:31.723Z,31.80
2018-04-29T11:44:57.846Z,32.30
2018-04-29T11:47:24.342Z,32.10
2018-04-29T11:49:50.426Z,32.00
2018-04-29T11:52:17.252Z,32.40
2018-04-29T11:54:43.627Z,32.40
2018-04-29T11:57:10.525Z,31.80
2018-04-29T11:59:37.526Z,31.80
2018-04-29T12:02:03.641Z,32.10
2018-04-29T12:04:29.717Z,32.50
2018-04-29T12:06:56.213Z,31.90
2018-04-29T12:09:22.330Z,32.50
2018-04-29T12:11:48.943Z,31.80
2018-04-29T12:14:15.902Z,31.60
2018-04-29T12:16:43.640Z,31.50
2018-04-29T12:19:10.526Z,32.20
2018-04-29T12:21:36.629Z,32.20
2018-04-29T12:24:04.026Z,32.20
2018-04-29T12:26:30.137Z,32.20
2018-04-29T12:28:56.193Z,31.60
2018-04-29T12:31:22.854Z,31.50
2018-04-29T12:33:49.483Z,31.30
2018-04-29T12:36:16.087Z,31.30
2018-04-29T12:38:43.235Z,30.80
2018-04-29T12:41:09.490Z,30.80
2018-04-29T12:43:36.365Z,30.60
2018-04-29T12:46:03.221Z,30.30
2018-04-29T12:48:29.335Z,30.20
2018-04-29T12:50:56.174Z,29.70
2018-04-29T12:53:22.980Z,30.00
2018-04-29T12:55:49.812Z,30.00
2018-04-29T12:58:16.478Z,29.50
2018-04-29T13:00:42.556Z,29.70
2018-04-29T13:03:08.680Z,30.50
2018-04-29T13:05:34.823Z,30.60
2018-04-29T13:08:01.427Z,29.70
2018-04-29T13:10:27.749Z,28.90
2018-04-29T13:12:53.820Z,29.70
2018-04-29T13:15:20.631Z,29.30
2018-04-29T13:17:46.926Z,28.60
2018-04-29T13:20:13.174Z,28.60
2018-04-29T13:22:39.243Z,29.40
2018-04-29T13:25:05.321Z,29.30
2018-04-29T13:27:31.833Z,29.40
2018-04-29T13:29:57.913Z,28.70
2018-04-29T13:32:24.009Z,29.70
2018-04-29T13:34:50.086Z,28.90
2018-04-29T13:37:16.151Z,29.70
2018-04-29T13:39:42.224Z,29.50
2018-04-29T13:42:08.337Z,29.30
2018-04-29T13:44:35.166Z,28.00
2018-04-29T13:47:01.215Z,28.00
2018-04-29T13:49:27.283Z,27.50
2018-04-29T13:51:54.600Z,27.50
2018-04-29T13:54:21.996Z,27.80
2018-04-29T13:56:49.729Z,26.40
2018-04-29T13:59:15.786Z,26.40
2018-04-29T14:01:42.591Z,26.00
2018-04-29T14:04:08.668Z,26.00
2018-04-29T14:06:35.047Z,26.30
2018-04-29T14:09:01.913Z,26.50
2018-04-29T14:11:28.993Z,26.60
2018-04-29T14:13:55.047Z,26.50
2018-04-29T14:16:21.205Z,26.40
2018-04-29T14:18:48.375Z,27.00
2018-04-29T14:21:14.500Z,27.00
2018-04-29T14:23:40.655Z,27.10
2018-04-29T14:26:06.704Z,26.00
2018-04-29T14:28:32.799Z,27.00
2018-04-29T14:30:58.996Z,26.20
2018-04-29T14:33:25.787Z,27.20
2018-04-29T14:35:51.884Z,27.20
2018-04-29T14:38:17.927Z,26.60
2018-04-29T14:40:44.012Z,26.10
2018-04-29T14:43:11.210Z,26.00
2018-04-29T14:45:37.676Z,26.40
2018-04-29T14:48:04.496Z,25.90
2018-04-29T14:50:30.537Z,25.90
2018-04-29T14:52:57.643Z,26.10
2018-04-29T14:55:25.057Z,26.60
2018-04-29T14:57:52.471Z,26.20
2018-04-29T15:00:19.403Z,26.50
2018-04-29T15:02:45.476Z,26.40
2018-04-29T15:05:12.284Z,26.10
2018-04-29T15:07:38.619Z,26.10
2018-04-29T15:10:04.812Z,26.70
2018-04-29T15:12:31.189Z,25.90
2018-04-29T15:14:57.382Z,26.00
2018-04-29T15:17:23.467Z,26.30
2018-04-29T15:19:50.866Z,25.80
2018-04-29T15:22:17.466Z,25.80
2018-04-29T15:24:45.422Z,26.50
2018-04-29T15:27:12.871Z,24.90
2018-04-29T15:29:39.649Z,25.50
2018-04-29T15:32:07.341Z,25.50
2018-04-29T15:34:33.539Z,25.50
2018-04-29T15:36:59.785Z,25.30
2018-04-29T15:39:26.285Z,25.60
2018-04-29T15:41:52.342Z,25.90
2018-04-29T15:44:18.587Z,26.40
2018-04-29T15:46:44.679Z,25.80
2018-04-29T15:49:10.765Z,25.70
2018-04-29T15:51:37.808Z,27.00
2018-04-29T15:54:03.845Z,26.60
2018-04-29T15:56:30.646Z,26.60
2018-04-29T15:58:56.720Z,26.60
2018-04-29T16:01:24.174Z,25.80
2018-04-29T16:03:51.255Z,26.20
2018-04-29T16:06:17.309Z,26.20
2018-04-29T16:08:43.419Z,26.40
2018-04-29T16:11:09.504Z,26.30
2018-04-29T16:23:20.647Z,26.20
2018-04-29T16:25:46.775Z,25.90
2018-04-29T16:28:12.821Z,26.60
2018-04-29T16:30:39.182Z,26.80
2018-04-29T16:33:06.023Z,26.60
2018-04-29T16:35:32.388Z,26.60
2018-04-29T16:37:58.850Z,26.70
2018-04-29T16:40:25.626Z,27.40
2018-04-29T16:42:52.069Z,26.90
2018-04-29T16:45:18.292Z,26.60
2018-04-29T16:47:44.340Z,26.90
2018-04-29T16:50:11.160Z,27.00
2018-04-29T16:52:37.817Z,27.00
2018-04-29T16:55:04.841Z,27.20
2018-04-29T16:57:31.345Z,27.10
2018-04-29T16:59:57.394Z,27.50
2018-04-29T17:02:23.519Z,27.90
2018-04-29T17:04:49.581Z,28.10
2018-04-29T17:07:16.808Z,28.20
2018-04-29T17:09:43.627Z,28.10
2018-04-29T17:12:10.286Z,28.00
2018-04-29T17:14:36.368Z,27.90
2018-04-29T17:17:02.449Z,28.10
2018-04-29T17:19:28.537Z,28.80
2018-04-29T17:21:54.912Z,28.90
2018-04-29T17:24:22.044Z,29.60
2018-04-29T17:26:48.867Z,30.00
2018-04-29T17:29:15.042Z,30.00
2018-04-29T17:31:41.174Z,29.30
2018-04-29T17:34:07.437Z,29.80
2018-04-29T17:36:33.533Z,30.00
2018-04-29T17:38:59.996Z,30.10
2018-04-29T17:41:27.215Z,31.30
2018-04-29T17:43:53.620Z,31.60
2018-04-29T17:46:20.445Z,30.40
2018-04-29T17:48:46.568Z,30.30
2018-04-29T17:51:12.631Z,31.00
2018-04-29T17:53:38.704Z,30.90
2018-04-29T17:56:04.828Z,33.10
2018-04-29T17:58:30.881Z,32.00
2018-04-29T18:00:57.696Z,32.20
2018-04-29T18:03:23.775Z,32.20
2018-04-29T18:05:49.821Z,33.20
2018-04-29T18:08:15.910Z,32.60
2018-04-29T18:10:42.059Z,33.30
2018-04-29T18:13:08.252Z,33.40
2018-04-29T18:15:35.063Z,32.70
2018-04-29T18:18:01.169Z,32.70
2018-04-29T18:20:27.843Z,32.60
2018-04-29T18:22:54.211Z,33.00
2018-04-29T18:25:21.113Z,33.20
2018-04-29T18:27:47.597Z,33.20
2018-04-29T18:30:14.767Z,33.20
2018-04-29T18:32:40.869Z,33.10
2018-04-29T18:35:07.116Z,33.60
2018-04-29T18:37:33.185Z,34.20
2018-04-29T18:40:00.033Z,35.00
2018-04-29T18:42:26.833Z,34.80
2018-04-29T18:44:53.341Z,34.80
2018-04-29T18:47:19.393Z,35.30
2018-04-29T18:49:45.488Z,35.30
2018-04-29T18:52:11.668Z,35.80
2018-04-29T18:54:37.736Z,37.20
2018-04-29T18:57:04.367Z,36.90
2018-04-29T18:59:30.601Z,35.90
2018-04-29T19:01:56.710Z,36.40
2018-04-29T19:04:23.543Z,36.20
2018-04-29T19:06:50.989Z,37.40
2018-04-29T19:09:17.846Z,37.40
2018-04-29T19:11:44.862Z,37.30
2018-04-29T19:14:11.523Z,37.30
2018-04-29T19:16:38.072Z,37.40
2018-04-29T19:19:04.334Z,37.10
2018-04-29T19:21:30.500Z,37.60
2018-04-29T19:23:58.872Z,37.50
2018-04-29T19:26:24.987Z,37.60
2018-04-29T19:28:51.141Z,36.00
2018-04-29T19:31:18.288Z,35.90
2018-04-29T19:33:45.189Z,36.40
2018-04-29T19:36:11.332Z,36.40
2018-04-29T19:38:37.964Z,35.60
2018-04-29T19:41:04.459Z,36.00
2018-04-29T19:43:30.668Z,35.30
2018-04-29T19:45:58.329Z,35.70
2018-04-29T19:48:25.163Z,35.80
2018-04-29T19:50:51.999Z,35.90
2018-04-29T19:53:20.595Z,36.00
2018-04-29T19:55:46.700Z,35.90
2018-04-29T19:58:12.810Z,36.20
2018-04-29T20:00:38.898Z,36.20
2018-04-29T20:03:05.061Z,36.50
2018-04-29T20:05:31.618Z,35.80
2018-04-29T20:07:58.456Z,36.60
2018-04-29T20:10:26.299Z,36.10
2018-04-29T20:12:52.441Z,36.10
2018-04-29T20:15:19.286Z,36.60
2018-04-29T20:17:45.380Z,36.40
2018-04-29T20:20:11.893Z,36.60
2018-04-29T20:22:38.940Z,36.50
2018-04-29T20:25:05.278Z,36.90
2018-04-29T20:27:31.332Z,37.20
2018-04-29T20:29:57.445Z,37.40
2018-04-29T20:32:30.342Z,37.50
2018-04-29T20:34:56.797Z,37.50
2018-04-29T20:37:23.008Z,37.70
2018-04-29T20:39:49.088Z,38.00
2018-04-29T20:42:15.154Z,37.70
2018-04-29T20:44:41.196Z,37.70
2018-04-29T20:47:07.232Z,38.30
2018-04-29T20:49:34.254Z,38.20
2018-04-29T20:52:01.082Z,37.90
2018-04-29T20:54:27.921Z,38.00
2018-04-29T20:56:53.997Z,37.90
2018-04-29T20:59:20.087Z,37.50
2018-04-29T21:01:47.046Z,38.00
2018-04-29T21:04:14.135Z,37.70
2018-04-29T21:06:40.337Z,37.70
2018-04-29T21:09:07.415Z,37.90
2018-04-29T21:11:34.319Z,37.90
2018-04-29T21:14:01.105Z,37.90
2018-04-29T21:16:27.173Z,38.00
2018-04-29T21:18:53.389Z,38.30
2018-04-29T21:21:19.554Z,38.60
2018-04-29T21:23:45.652Z,38.30
2018-04-29T21:26:11.729Z,38.50
2018-04-29T21:28:38.266Z,39.10
2018-04-29T21:31:04.469Z,38.80
2018-04-29T21:33:30.552Z,39.00
2018-04-29T21:35:56.625Z,39.00
2018-04-29T21:38:22.899Z,39.10
2018-04-29T21:40:49.523Z,39.40
2018-04-29T21:43:16.144Z,40.00
2018-04-29T21:45:43.013Z,39.20
2018-04-29T21:48:09.099Z,39.20
2018-04-29T21:50:35.467Z,38.70
2018-04-29T21:53:02.191Z,38.20
2018-04-29T21:55:28.269Z,38.00
2018-04-29T21:57:55.160Z,37.80
2018-04-29T22:00:21.241Z,37.80
2018-04-29T22:02:48.574Z,37.80
2018-04-29T22:05:14.635Z,37.80
2018-04-29T22:07:40.749Z,37.90
2018-04-29T22:10:06.958Z,38.20
2018-04-29T22:12:34.654Z,38.60
2018-04-29T22:15:00.859Z,38.50
2018-04-29T22:17:27.658Z,38.40
2018-04-29T22:19:53.700Z,38.30
2018-04-29T22:22:19.783Z,38.30
2018-04-29T22:24:45.993Z,38.20
2018-04-29T22:27:12.969Z,37.70
2018-04-29T22:29:39.013Z,37.50
2018-04-29T22:32:06.050Z,37.70
2018-04-29T22:34:32.985Z,37.40
2018-04-29T22:36:59.055Z,37.70
2018-04-29T22:39:26.521Z,36.70
2018-04-29T22:41:53.109Z,36.60
2018-04-29T22:44:20.184Z,36.70
2018-04-29T22:46:47.002Z,36.60
2018-04-29T22:49:13.129Z,36.50
2018-04-29T22:51:39.176Z,36.60
2018-04-29T22:54:05.981Z,36.20
2018-04-29T22:56:32.554Z,36.20
2018-04-29T22:58:59.380Z,36.20
2018-04-29T23:01:26.146Z,36.20
2018-04-29T23:03:53.597Z,35.80
2018-04-29T23:06:19.639Z,35.80
2018-04-29T23:08:46.245Z,36.00
2018-04-29T23:11:12.300Z,36.00
2018-04-29T23:13:38.340Z,36.20
2018-04-29T23:16:04.944Z,36.00
2018-04-29T23:18:32.289Z,36.10
2018-04-29T23:20:58.352Z,36.10
2018-04-29T23:23:25.400Z,35.90
2018-04-29T23:25:51.436Z,36.00
2018-04-29T23:28:17.558Z,35.90
2018-04-29T23:30:43.601Z,35.90
2018-04-29T23:33:09.724Z,35.80
2018-04-29T23:35:36.284Z,35.80
2018-04-29T23:38:02.350Z,35.70
2018-04-29T23:40:28.381Z,35.80
2018-04-29T23:42:56.058Z,36.20
2018-04-29T23:45:22.128Z,35.70
2018-04-29T23:47:48.907Z,36.00
2018-04-29T23:50:14.975Z,36.00
2018-04-29T23:52:42.083Z,36.00
2018-04-29T23:55:08.480Z,35.90
2018-04-29T23:57:35.288Z,35.80
